KSPF

Black Hills-Clyde Ice Field Airport

Spearfish, South Dakota, USA
METAR KSPF 110315Z AUTO 21005KT 10SM FEW005 M01/M12 A2997 RMK AO2 PWINO
Observed Flight Rules
Dec-11 @ 03:15 UTC (16 minutes ago) Visual Flight Rules
Wind Visibility Clouds
210° at 5 knots 10 miles
  • Few at 500' AGL
Temperatures Readings
Current -1°C / 30°F
Dewpoint -12°C / 10°F
Humidity 43%
Altimeter 29.97" Hg
Pressure 1015 hPa
Elevation 1188
METAR KSPF 110315Z AUTO 21005KT 10SM FEW005 M01/M12 A2997 RMK AO2 PWINO
Observed Flight Rules
Dec-11 @ 03:15 UTC
(16 minutes ago)
VFR
Wind Visibility
210° at 5 knots 10 miles
Clouds
  • Few at 500' AGL
Temperature Dewpoint
-1°C / 30°F -12°C / 10°F
Humidity Altimeter Pressure
43% 29.97" Hg 1015 hPa